Gove Airport
YPGV : rendu visible

Aérodrome :











RETROUVEZ-NOUS SUR...

 
LOGIN :

S'inscrire | Disclaimer

   EN    FR    IT 

 









Légende :    VFR   VFR Marginal   IFR   IFR Intensif   IFR Très Intensif
Visi : 
Plafond : 
>= 8 km
>= 3000ft
5 à 8 km
1000 à 3000 ft
1500m à 5 km
500 à 1000 ft
800 à 1500m
200 à 500 ft
< 800m
< 200 ft
Symboles :   Orages  Brouillard  Fortes neiges  Fortes précipitations  Vent > 20 kt






- Altitude de l'aérodrome : 192 ft
- Code IATA : GOV


YPGV - Gove

DERNIER METAR :
  • 050400Z 13014KT 9999 SCT032 28/18 Q1013

METARs EXPIRÉS :
  • 050330Z 13015KT 9999 SCT040 28/17 Q1014
  • 050300Z 13013KT CAVOK 29/17 Q1014
  • 050230Z 13013KT 9999 SCT040 29/17 Q1015
  • 050200Z 13014KT 9999 BKN040 29/18 Q1015
  • 050130Z 14014KT 9999 BKN040 29/17 Q1016

TAF TAF YPGV
Valide du 05 à 02h jusqu'au 05 à 14h UTC


050003Z 0502/0514 14014KT 9999 SCT030
FM051000 13007KT 9999 SCT025
FIR YBBB / Océanie



MET'MAP, la Météo Aéronautique d'un coup d'oeil ! - Copyright ORBIFLY Décembre 2007 - Disclaimer

ORBIFLY MET'MAP TEAM :

Programmation & Développement : Alexandra Zaïnal
Sur une idée originale de : Baudouin d'Aumeries
Assistance à la programmation : Marc-Olivier Méhu
Soutien technique & logistique : Manuel Goepfert

Contact : metmap@orbifly.com




SOURCES & CREDITS :

   NOAA       Earth
Advisory